Aérodrome :
LOGIN :

S'inscrire | Disclaimer

   EN    FR    IT 

 










Légende :    VFR   VFR Marginal   IFR   IFR Intensif   IFR Très Intensif
Visi : 
Plafond : 
>= 8 km
>= 3000ft
5 à 8 km
1000 à 3000 ft
1500m à 5 km
500 à 1000 ft
800 à 1500m
200 à 500 ft
< 800m
< 200 ft
Symboles :   Orages  Brouillard  Fortes neiges  Fortes précipitations  Vent > 20 kt
SIGMETs :   Divers  Orages  Givrage  Turbulence  Onde Orograph.  Cendres Volcan.






- Altitude de l'aérodrome : 49 ft
- Code IATA : GLZ


EHGR - Gilze-Rijen Airbase

DERNIER METAR :
  • 240525Z AUTO 18007KT 140V210 9999 FEW014 OVC032 12/11 Q1011 BLU

METARs EXPIRÉS :
  • 240518Z AUTO 18008KT 140V210 9999 SCT014 BKN016 OVC032 12/11 Q1011 GRN
  • 240455Z AUTO 20006KT 150V240 9999 BKN011 OVC014 12/11 Q1011 REDZ GRN
  • 240447Z AUTO 20006KT 160V240 9999 FEW005 OVC012 12/11 Q1011 GRN
  • 240432Z AUTO 22010KT 190V260 5000 DZRA SCT012 BKN015 OVC019 12/11 Q1011 GRN
  • 240431Z AUTO 22011KT 170V270 5000 -RA FEW012 BKN015 BKN019 12/10 Q1011 WHT
  • 240416Z AUTO 21008KT 160V260 9999 FEW021 BKN024 BKN028 12/10 Q1011 WHT
  • 240355Z AUTO 21008KT 170V260 9999 OVC029 13/10 Q1011 BLU
  • 240325Z AUTO 21007KT 180V260 9999 SCT026 BKN033 OVC040 13/10 Q1011 BLU
  • 240255Z AUTO 22007KT 180V260 9999 OVC034 13/10 Q1011 BLU

Prévision TAF périmée.



MET'MAP, la Météo Aéronautique d'un coup d'oeil ! - Copyright ORBIFLY Décembre 2007 - Disclaimer

ORBIFLY MET'MAP TEAM :

Programmation & Développement : Alexandra Zaïnal
Sur une idée originale de : Baudouin d'Aumeries
Assistance à la programmation : Marc-Olivier Méhu
Soutien technique & logistique : Manuel Goepfert

Contact : metmap@orbifly.com




SOURCES & CREDITS :

   NOAA